Wetterdaten: Woche 25.02.13 - 03.03.13 (KW9)
Datum Zeit Temp. A. Feuchte A. Luftdruck Regen Wind Richtung Taupunkt Windchill Windben
25.02.2013 00:00 1,3 C 82 % 1012,1 hPa 0,5 l/m 0,2 km/h N -1,4 C 1,3 C 1,2 km/h
25.02.2013 01:00 1,3 C 81 % 1012,3 hPa 1,0 l/m 2,5 km/h N -1,6 C 1,3 C 7,2 km/h
25.02.2013 02:00 1,1 C 82 % 1012,7 hPa 0,5 l/m 1,2 km/h N -1,6 C 1,1 C 4,8 km/h
25.02.2013 03:00 0,9 C 81 % 1013,3 hPa 0,5 l/m 1,3 km/h N -2,0 C 0,9 C 6,0 km/h
25.02.2013 04:00 0,6 C 81 % 1014,1 hPa 0,5 l/m 1,4 km/h N -2,2 C 0,6 C 7,2 km/h
25.02.2013 05:00 0,5 C 82 % 1014,8 hPa 0,0 l/m 1,5 km/h N -2,3 C 0,5 C 6,4 km/h
25.02.2013 06:00 0,4 C 82 % 1015,3 hPa 0,0 l/m 1,8 km/h N -2,3 C 0,4 C 6,0 km/h
25.02.2013 07:00 0,6 C 82 % 1016,4 hPa 0,3 l/m 0,6 km/h N -2,2 C 0,6 C 5,2 km/h
25.02.2013 08:00 0,8 C 83 % 1017,3 hPa 0,3 l/m 0,6 km/h N -1,9 C 0,8 C 4,4 km/h
25.02.2013 09:00 0,9 C 83 % 1017,8 hPa 0,5 l/m 0,6 km/h N -1,6 C 0,9 C 3,6 km/h
25.02.2013 10:00 1,3 C 83 % 1018,3 hPa 0,8 l/m 0,5 km/h N -1,3 C 1,3 C 4,0 km/h
25.02.2013 11:00 2,1 C 83 % 1019,0 hPa 1,6 l/m 0,1 km/h N -0,5 C 2,1 C 0,8 km/h
25.02.2013 12:00 2,9 C 85 % 1019,7 hPa 1,6 l/m 0,9 km/h N 0,6 C 2,9 C 5,2 km/h
25.02.2013 13:00 3,3 C 86 % 1019,9 hPa 1,3 l/m 0,1 km/h N 1,1 C 3,3 C 2,0 km/h
25.02.2013 14:00 3,2 C 86 % 1020,1 hPa 1,8 l/m 0,2 km/h N 1,0 C 3,2 C 2,4 km/h
25.02.2013 15:00 3,3 C 86 % 1020,2 hPa 1,3 l/m 0,0 km/h N 1,2 C 3,3 C 0,4 km/h
25.02.2013 16:00 2,8 C 86 % 1020,7 hPa 0,5 l/m 0,0 km/h N 0,7 C 2,8 C 0,0 km/h
25.02.2013 17:00 2,3 C 86 % 1021,3 hPa 0,5 l/m 0,0 km/h N 0,2 C 2,3 C 0,4 km/h
25.02.2013 18:00 1,7 C 86 % 1021,9 hPa 0,3 l/m 0,0 km/h N -0,4 C 1,7 C 0,4 km/h
25.02.2013 19:00 1,3 C 85 % 1022,3 hPa 0,0 l/m 0,0 km/h N -0,8 C 1,3 C 0,0 km/h
25.02.2013 20:00 1,3 C 85 % 1022,6 hPa 0,3 l/m 0,4 km/h N -1,0 C 1,3 C 2,4 km/h
25.02.2013 21:00 1,5 C 84 % 1023,0 hPa 0,0 l/m 0,2 km/h N -1,0 C 1,5 C 1,6 km/h
25.02.2013 22:00 1,6 C 83 % 1022,6 hPa 0,3 l/m 0,3 km/h N -1,0 C 1,6 C 2,0 km/h
25.02.2013 23:00 1,8 C 82 % 1022,0 hPa 0,3 l/m 0,0 km/h N -0,9 C 1,8 C 1,6 km/h
26.02.2013 00:00 2,1 C 82 % 1021,6 hPa 0,3 l/m 0,5 km/h N -0,7 C 2,1 C 4,4 km/h
26.02.2013 01:00 3,3 C 81 % 1020,9 hPa 0,8 l/m 3,2 km/h N 0,2 C 3,3 C 9,7 km/h
26.02.2013 02:00 3,0 C 81 % 1021,6 hPa 0,5 l/m 1,2 km/h N 0,1 C 3,0 C 5,2 km/h
26.02.2013 03:00 2,7 C 82 % 1021,7 hPa 1,0 l/m 1,1 km/h N -0,1 C 2,7 C 4,0 km/h
26.02.2013 04:00 2,5 C 82 % 1021,1 hPa 1,3 l/m 4,2 km/h N -0,2 C 2,5 C 12,5 km/h
26.02.2013 05:00 2,4 C 82 % 1021,5 hPa 0,5 l/m 3,1 km/h N -0,4 C 2,4 C 8,4 km/h
26.02.2013 06:00 2,3 C 82 % 1021,5 hPa 0,8 l/m 6,1 km/h N -0,5 C 2,2 C 15,3 km/h
26.02.2013 07:00 2,2 C 82 % 1022,2 hPa 0,8 l/m 6,0 km/h N -0,6 C 2,1 C 14,1 km/h
26.02.2013 08:00 2,3 C 81 % 1022,7 hPa 0,8 l/m 6,8 km/h N -0,7 C 1,7 C 16,5 km/h
26.02.2013 09:00 2,4 C 81 % 1022,8 hPa 0,3 l/m 6,8 km/h N -0,5 C 1,9 C 14,9 km/h
26.02.2013 10:00 2,6 C 82 % 1022,8 hPa 0,0 l/m 7,8 km/h N -0,1 C 1,3 C 17,3 km/h
26.02.2013 11:00 2,8 C 83 % 1023,0 hPa 0,0 l/m 10,1 km/h N 0,3 C -0,4 C 22,9 km/h
26.02.2013 12:00 3,2 C 85 % 1022,9 hPa 0,0 l/m 8,2 km/h N 0,9 C 1,5 C 18,9 km/h
26.02.2013 13:00 3,4 C 86 % 1022,8 hPa 0,0 l/m 10,1 km/h N 1,2 C 0,2 C 23,7 km/h
26.02.2013 14:00 3,3 C 86 % 1022,6 hPa 0,0 l/m 9,7 km/h N 1,2 C 0,4 C 22,5 km/h
26.02.2013 15:00 3,5 C 85 % 1022,6 hPa 0,0 l/m 9,0 km/h N 1,2 C 1,3 C 18,9 km/h
26.02.2013 16:00 3,7 C 84 % 1022,8 hPa 0,0 l/m 8,2 km/h N 1,2 C 2,1 C 18,1 km/h
26.02.2013 17:00 3,8 C 84 % 1023,0 hPa 0,0 l/m 8,1 km/h N 1,3 C 2,2 C 17,3 km/h
26.02.2013 18:00 3,7 C 84 % 1023,3 hPa 0,0 l/m 9,4 km/h N 1,3 C 1,1 C 22,9 km/h
26.02.2013 19:00 3,4 C 84 % 1023,9 hPa 0,0 l/m 6,6 km/h N 0,9 C 3,1 C 17,7 km/h
26.02.2013 20:00 3,0 C 85 % 1024,3 hPa 0,0 l/m 6,6 km/h N 0,7 C 2,5 C 15,3 km/h
26.02.2013 21:00 2,8 C 85 % 1024,9 hPa 0,0 l/m 8,4 km/h N 0,5 C 0,9 C 19,3 km/h
26.02.2013 22:00 2,3 C 85 % 1025,2 hPa 0,0 l/m 9,1 km/h N -0,0 C -0,2 C 20,5 km/h
26.02.2013 23:00 2,0 C 86 % 1025,3 hPa 0,0 l/m 7,2 km/h N -0,1 C 1,3 C 17,3 km/h
27.02.2013 00:00 1,9 C 86 % 1025,4 hPa 0,0 l/m 7,4 km/h N -0,2 C 0,9 C 16,9 km/h
27.02.2013 01:00 1,8 C 86 % 1025,6 hPa 0,0 l/m 7,1 km/h N -0,3 C 1,2 C 19,3 km/h
27.02.2013 02:00 1,8 C 85 % 1025,4 hPa 0,0 l/m 8,5 km/h N -0,4 C -0,2 C 19,7 km/h
27.02.2013 03:00 1,9 C 86 % 1025,2 hPa 0,0 l/m 8,4 km/h N -0,2 C 0,0 C 19,3 km/h
27.02.2013 04:00 2,1 C 86 % 1025,0 hPa 0,0 l/m 8,2 km/h N 0,0 C 0,4 C 19,3 km/h
27.02.2013 05:00 2,1 C 86 % 1025,1 hPa 0,0 l/m 9,7 km/h N 0,0 C -0,9 C 19,3 km/h
27.02.2013 06:00 2,3 C 86 % 1025,0 hPa 0,0 l/m 10,9 km/h N 0,2 C -1,6 C 23,3 km/h
27.02.2013 07:00 2,5 C 86 % 1025,4 hPa 0,0 l/m 10,5 km/h N 0,4 C -1,1 C 22,5 km/h
27.02.2013 08:00 2,7 C 85 % 1025,9 hPa 0,0 l/m 10,7 km/h N 0,5 C -1,0 C 23,3 km/h
27.02.2013 09:00 2,8 C 86 % 1026,3 hPa 0,0 l/m 8,4 km/h N 0,6 C 0,9 C 16,5 km/h
27.02.2013 10:00 3,0 C 86 % 1026,5 hPa 0,3 l/m 7,1 km/h N 0,9 C 2,3 C 16,9 km/h
27.02.2013 11:00 3,2 C 86 % 1026,8 hPa 0,0 l/m 8,0 km/h N 1,0 C 1,7 C 18,1 km/h
27.02.2013 12:00 3,1 C 86 % 1026,7 hPa 0,0 l/m 8,1 km/h N 1,0 C 1,6 C 18,5 km/h
27.02.2013 13:00 3,4 C 85 % 1026,4 hPa 0,0 l/m 8,4 km/h N 1,1 C 1,6 C 20,5 km/h
27.02.2013 14:00 3,4 C 85 % 1026,5 hPa 0,0 l/m 8,4 km/h N 1,1 C 1,7 C 18,1 km/h
27.02.2013 15:00 3,4 C 85 % 1026,2 hPa 0,0 l/m 9,1 km/h N 1,1 C 1,0 C 18,1 km/h
27.02.2013 16:00 3,5 C 84 % 1026,2 hPa 0,0 l/m 8,2 km/h N 1,0 C 1,9 C 18,5 km/h
27.02.2013 17:00 3,6 C 83 % 1026,6 hPa 0,0 l/m 8,6 km/h N 1,1 C 1,7 C 20,1 km/h
27.02.2013 18:00 3,7 C 83 % 1027,0 hPa 0,0 l/m 9,1 km/h N 1,0 C 1,4 C 18,9 km/h
27.02.2013 19:00 3,7 C 82 % 1027,1 hPa 0,0 l/m 7,8 km/h N 1,0 C 2,4 C 16,1 km/h
27.02.2013 20:00 3,7 C 81 % 1027,3 hPa 0,0 l/m 6,7 km/h N 0,8 C 3,2 C 16,1 km/h
27.02.2013 21:00 3,7 C 81 % 1027,4 hPa 0,0 l/m 6,7 km/h N 0,7 C 3,2 C 15,7 km/h
27.02.2013 22:00 3,4 C 81 % 1027,5 hPa 0,0 l/m 6,0 km/h N 0,5 C 3,3 C 14,1 km/h
27.02.2013 23:00 3,4 C 81 % 1027,5 hPa 0,0 l/m 5,8 km/h N 0,4 C 3,3 C 11,7 km/h
28.02.2013 00:00 3,4 C 81 % 1027,6 hPa 0,0 l/m 5,1 km/h N 0,4 C 3,4 C 10,5 km/h
28.02.2013 01:00 3,3 C 80 % 1027,6 hPa 0,0 l/m 3,1 km/h N 0,2 C 3,3 C 9,2 km/h
28.02.2013 02:00 3,2 C 81 % 1027,4 hPa 0,0 l/m 2,8 km/h N 0,2 C 3,2 C 8,0 km/h
28.02.2013 03:00 3,0 C 81 % 1027,1 hPa 0,0 l/m 0,8 km/h N 0,0 C 3,0 C 3,6 km/h
28.02.2013 04:00 2,8 C 82 % 1026,7 hPa 0,0 l/m 1,7 km/h N -0,1 C 2,8 C 6,0 km/h
28.02.2013 05:00 2,6 C 82 % 1026,5 hPa 0,0 l/m 0,1 km/h N -0,2 C 2,6 C 2,0 km/h
28.02.2013 06:00 2,3 C 82 % 1026,4 hPa 0,0 l/m 0,0 km/h N -0,4 C 2,3 C 0,0 km/h
28.02.2013 07:00 2,3 C 84 % 1026,8 hPa 0,0 l/m 0,0 km/h N -0,2 C 2,3 C 1,2 km/h
28.02.2013 08:00 2,8 C 83 % 1026,9 hPa 0,0 l/m 0,3 km/h N 0,2 C 2,8 C 3,2 km/h
28.02.2013 09:00 3,6 C 81 % 1026,9 hPa 0,0 l/m 0,1 km/h N 0,6 C 3,6 C 2,0 km/h
28.02.2013 10:00 4,9 C 78 % 1026,8 hPa 0,0 l/m 0,8 km/h N 1,3 C 4,9 C 4,8 km/h
28.02.2013 11:00 5,6 C 75 % 1026,4 hPa 0,0 l/m 1,1 km/h N 1,6 C 5,6 C 6,8 km/h
28.02.2013 12:00 6,5 C 74 % 1025,6 hPa 0,0 l/m 1,4 km/h N 2,2 C 6,5 C 8,0 km/h
28.02.2013 13:00 7,1 C 72 % 1024,8 hPa 0,0 l/m 2,0 km/h N 2,3 C 7,1 C 9,7 km/h
28.02.2013 14:00 7,5 C 71 % 1024,1 hPa 0,0 l/m 1,7 km/h N 2,6 C 7,5 C 9,3 km/h
28.02.2013 15:00 7,7 C 71 % 1023,6 hPa 0,0 l/m 1,3 km/h N 2,7 C 7,7 C 5,6 km/h
28.02.2013 16:00 7,2 C 73 % 1023,2 hPa 0,0 l/m 0,4 km/h N 2,6 C 7,2 C 3,6 km/h
28.02.2013 17:00 6,1 C 75 % 1022,7 hPa 0,0 l/m 0,0 km/h N 2,1 C 6,1 C 0,8 km/h
28.02.2013 18:00 4,1 C 80 % 1022,3 hPa 0,0 l/m 0,0 km/h N 0,9 C 4,1 C 0,4 km/h
28.02.2013 19:00 2,3 C 83 % 1022,0 hPa 0,0 l/m 0,0 km/h N -0,3 C 2,3 C 0,8 km/h
28.02.2013 20:00 1,3 C 85 % 1022,0 hPa 0,0 l/m 0,0 km/h N -0,9 C 1,3 C 0,4 km/h
28.02.2013 21:00 1,7 C 85 % 1021,9 hPa 0,0 l/m 0,7 km/h N -0,6 C 1,7 C 4,0 km/h
28.02.2013 22:00 2,1 C 85 % 1021,8 hPa 0,0 l/m 0,3 km/h N -0,2 C 2,1 C 3,2 km/h
28.02.2013 23:00 3,5 C 85 % 1021,7 hPa 0,0 l/m 3,3 km/h N 1,2 C 3,5 C 12,5 km/h
01.03.2013 00:00 4,0 C 82 % 1021,6 hPa 0,0 l/m 4,2 km/h N 1,2 C 3,9 C 16,1 km/h
01.03.2013 01:00 3,7 C 82 % 1021,3 hPa 0,0 l/m 4,5 km/h N 0,9 C 3,5 C 15,3 km/h
01.03.2013 02:00 3,5 C 82 % 1020,6 hPa 0,0 l/m 2,5 km/h N 0,7 C 3,5 C 11,6 km/h
01.03.2013 03:00 3,3 C 82 % 1020,2 hPa 0,0 l/m 4,5 km/h N 0,5 C 3,3 C 17,3 km/h
01.03.2013 04:00 3,0 C 83 % 1020,0 hPa 0,0 l/m 3,3 km/h N 0,3 C 3,0 C 15,3 km/h
01.03.2013 05:00 2,6 C 83 % 1020,1 hPa 0,0 l/m 11,1 km/h N 0,0 C -1,3 C 24,9 km/h
01.03.2013 06:00 2,6 C 82 % 1020,0 hPa 0,0 l/m 11,4 km/h N -0,1 C -1,6 C 24,5 km/h
01.03.2013 07:00 2,6 C 82 % 1020,3 hPa 0,0 l/m 10,6 km/h N -0,2 C -1,0 C 25,3 km/h
01.03.2013 08:00 2,6 C 82 % 1020,4 hPa 0,0 l/m 11,9 km/h N -0,2 C -1,9 C 24,1 km/h
01.03.2013 09:00 2,6 C 82 % 1020,7 hPa 0,0 l/m 13,0 km/h N -0,2 C -2,6 C 29,0 km/h
01.03.2013 10:00 3,0 C 79 % 1020,4 hPa 0,0 l/m 11,2 km/h N -0,3 C -1,0 C 25,7 km/h
01.03.2013 11:00 3,8 C 76 % 1020,2 hPa 0,0 l/m 11,1 km/h N -0,1 C -0,1 C 24,1 km/h
01.03.2013 12:00 3,9 C 74 % 1019,9 hPa 0,0 l/m 10,9 km/h N -0,3 C 0,3 C 22,1 km/h
01.03.2013 13:00 4,0 C 74 % 1019,5 hPa 0,0 l/m 11,1 km/h N -0,2 C 0,2 C 23,3 km/h
01.03.2013 14:00 4,2 C 73 % 1019,2 hPa 0,0 l/m 10,6 km/h N -0,2 C 0,8 C 22,5 km/h
01.03.2013 15:00 4,3 C 73 % 1019,0 hPa 0,0 l/m 10,4 km/h N -0,1 C 1,0 C 23,7 km/h
01.03.2013 16:00 4,0 C 74 % 1018,8 hPa 0,0 l/m 11,4 km/h N -0,3 C -0,0 C 24,1 km/h
01.03.2013 17:00 3,4 C 76 % 1019,1 hPa 0,0 l/m 9,4 km/h N -0,5 C 0,7 C 22,9 km/h
01.03.2013 18:00 3,0 C 78 % 1019,7 hPa 0,0 l/m 10,8 km/h N -0,5 C -0,7 C 22,9 km/h
01.03.2013 19:00 2,6 C 81 % 1020,3 hPa 0,0 l/m 7,8 km/h N -0,4 C 1,1 C 20,9 km/h
01.03.2013 20:00 2,2 C 84 % 1021,0 hPa 0,0 l/m 4,5 km/h N -0,2 C 2,2 C 12,9 km/h
01.03.2013 21:00 1,9 C 85 % 1021,4 hPa 0,0 l/m 5,1 km/h N -0,3 C 1,9 C 15,3 km/h
01.03.2013 22:00 2,1 C 82 % 1021,8 hPa 0,0 l/m 6,5 km/h N -0,7 C 1,6 C 15,7 km/h
01.03.2013 23:00 2,2 C 78 % 1022,2 hPa 0,0 l/m 7,8 km/h N -1,2 C 0,9 C 19,3 km/h
02.03.2013 00:00 2,0 C 76 % 1022,6 hPa 0,0 l/m 5,8 km/h N -1,8 C 1,9 C 17,7 km/h
02.03.2013 01:00 1,8 C 72 % 1022,8 hPa 0,0 l/m 6,6 km/h N -2,7 C 1,4 C 18,1 km/h
02.03.2013 02:00 1,9 C 69 % 1022,7 hPa 0,0 l/m 7,0 km/h N -3,1 C 1,3 C 18,5 km/h
02.03.2013 03:00 1,9 C 67 % 1022,6 hPa 0,0 l/m 7,8 km/h N -3,5 C 0,6 C 17,7 km/h
02.03.2013 04:00 1,8 C 66 % 1022,9 hPa 0,0 l/m 8,5 km/h N -4,0 C -0,1 C 18,5 km/h
02.03.2013 05:00 1,3 C 65 % 1022,6 hPa 0,0 l/m 7,4 km/h N -4,6 C 0,3 C 18,5 km/h
02.03.2013 06:00 0,7 C 68 % 1022,6 hPa 0,0 l/m 3,8 km/h N -4,6 C 0,7 C 11,7 km/h
02.03.2013 07:00 0,4 C 71 % 1023,3 hPa 0,0 l/m 1,4 km/h N -4,3 C 0,4 C 7,7 km/h
02.03.2013 08:00 2,0 C 66 % 1023,8 hPa 0,0 l/m 6,8 km/h N -3,7 C 0,9 C 20,9 km/h
02.03.2013 09:00 3,2 C 61 % 1023,9 hPa 0,0 l/m 9,9 km/h N -3,6 C 0,2 C 21,3 km/h
02.03.2013 10:00 4,0 C 57 % 1024,1 hPa 0,0 l/m 11,7 km/h N -3,7 C -0,2 C 24,1 km/h
02.03.2013 11:00 4,8 C 55 % 1024,1 hPa 0,0 l/m 8,8 km/h N -3,4 C 2,8 C 21,3 km/h
02.03.2013 12:00 5,7 C 53 % 1023,4 hPa 0,0 l/m 8,7 km/h N -3,2 C 3,8 C 19,7 km/h
02.03.2013 13:00 6,0 C 52 % 1022,6 hPa 0,0 l/m 7,8 km/h N -3,2 C 4,8 C 20,1 km/h
02.03.2013 14:00 6,2 C 50 % 1021,8 hPa 0,0 l/m 7,5 km/h N -3,5 C 5,2 C 18,5 km/h
02.03.2013 15:00 6,0 C 52 % 1021,3 hPa 0,0 l/m 5,8 km/h N -3,3 C 5,7 C 16,1 km/h
02.03.2013 16:00 5,8 C 53 % 1021,1 hPa 0,0 l/m 4,7 km/h N -3,0 C 5,8 C 13,3 km/h
02.03.2013 17:00 4,9 C 58 % 1021,3 hPa 0,0 l/m 0,9 km/h N -2,8 C 4,9 C 5,2 km/h
02.03.2013 18:00 3,2 C 61 % 1021,6 hPa 0,0 l/m 0,0 km/h N -3,6 C 3,2 C 0,8 km/h
02.03.2013 19:00 0,9 C 70 % 1021,6 hPa 0,0 l/m 0,0 km/h N -4,0 C 0,9 C 0,0 km/h
02.03.2013 20:00 -0,2 C 76 % 1021,5 hPa 0,0 l/m 0,1 km/h N -3,9 C -0,2 C 1,2 km/h
02.03.2013 21:00 0,1 C 77 % 1021,4 hPa 0,0 l/m 0,5 km/h N -3,6 C 0,1 C 4,0 km/h
02.03.2013 22:00 -0,4 C 77 % 1021,3 hPa 0,0 l/m 0,2 km/h N -4,0 C -0,4 C 2,8 km/h
02.03.2013 23:00 -0,8 C 78 % 1021,0 hPa 0,0 l/m 0,5 km/h N -4,1 C -0,8 C 4,0 km/h
03.03.2013 00:00 -1,2 C 79 % 1020,8 hPa 0,0 l/m 0,8 km/h N -4,3 C -1,2 C 4,8 km/h
03.03.2013 01:00 -1,7 C 80 % 1021,0 hPa 0,0 l/m 0,3 km/h N -4,7 C -1,7 C 3,2 km/h
03.03.2013 02:00 -1,7 C 82 % 1020,8 hPa 0,0 l/m 1,7 km/h N -4,4 C -1,7 C 5,6 km/h
03.03.2013 03:00 -1,3 C 79 % 1020,3 hPa 0,0 l/m 0,9 km/h N -4,5 C -1,3 C 4,0 km/h
03.03.2013 04:00 -2,9 C 79 % 1020,1 hPa 0,0 l/m 0,0 km/h N -6,0 C -2,9 C 0,0 km/h
03.03.2013 05:00 -0,9 C 80 % 1019,9 hPa 0,0 l/m 2,3 km/h N -3,9 C -0,9 C 8,5 km/h
03.03.2013 06:00 -0,3 C 76 % 1019,8 hPa 0,0 l/m 1,1 km/h N -3,9 C -0,3 C 6,8 km/h
03.03.2013 07:00 1,5 C 73 % 1019,9 hPa 0,0 l/m 2,6 km/h N -2,9 C 1,5 C 12,1 km/h
03.03.2013 08:00 3,3 C 67 % 1020,1 hPa 0,0 l/m 6,7 km/h N -2,2 C 2,6 C 20,1 km/h
03.03.2013 09:00 4,3 C 63 % 1020,4 hPa 0,0 l/m 7,0 km/h N -2,1 C 3,4 C 22,9 km/h
03.03.2013 10:00 5,8 C 58 % 1020,2 hPa 0,0 l/m 9,3 km/h N -1,8 C 3,5 C 24,5 km/h
03.03.2013 11:00 6,7 C 54 % 1020,1 hPa 0,0 l/m 10,6 km/h N -1,9 C 3,6 C 27,0 km/h
03.03.2013 12:00 7,4 C 50 % 1019,8 hPa 0,0 l/m 10,7 km/h N -2,2 C 4,4 C 23,7 km/h
03.03.2013 13:00 7,7 C 50 % 1019,4 hPa 0,0 l/m 9,5 km/h N -2,1 C 5,5 C 22,5 km/h
03.03.2013 14:00 7,6 C 51 % 1019,0 hPa 0,0 l/m 10,4 km/h N -2,0 C 4,8 C 24,1 km/h
03.03.2013 15:00 7,6 C 50 % 1018,6 hPa 0,0 l/m 9,5 km/h N -2,1 C 5,4 C 20,1 km/h
03.03.2013 16:00 7,1 C 52 % 1018,7 hPa 0,0 l/m 7,9 km/h N -2,2 C 5,9 C 19,7 km/h
03.03.2013 17:00 5,8 C 54 % 1019,0 hPa 0,0 l/m 9,0 km/h N -2,8 C 3,6 C 20,1 km/h
03.03.2013 18:00 4,2 C 59 % 1019,7 hPa 0,0 l/m 1,4 km/h N -3,1 C 4,2 C 7,6 km/h
03.03.2013 19:00 3,0 C 66 % 1020,2 hPa 0,0 l/m 1,8 km/h N -2,8 C 3,0 C 7,6 km/h
03.03.2013 20:00 2,5 C 71 % 1021,0 hPa 0,0 l/m 2,8 km/h N -2,2 C 2,5 C 9,3 km/h
03.03.2013 21:00 2,1 C 74 % 1021,7 hPa 0,0 l/m 2,0 km/h N -2,0 C 2,1 C 7,6 km/h
03.03.2013 22:00 1,7 C 76 % 1022,2 hPa 0,0 l/m 0,7 km/h N -2,1 C 1,7 C 5,2 km/h
03.03.2013 23:00 2,0 C 76 % 1022,6 hPa 0,0 l/m 2,3 km/h N -1,8 C 2,0 C 9,3 km/h
Min-Datum _ 03.03.13 02.03.13 25.02.13 - 25.02.13 - 03.03.13 01.03.13 25.02.13
_ Min-Zeit 04:45 14:45 00:00 - 00:15 - 04:45 09:30 00:15
Minimum _ -3,4 C 49 % 1012,0 hPa - 0,0 km/h - -6,2 C -4,0 C 0,0 km/h
Max-Datum _ 28.02.13 25.02.13 27.02.13 25.02.13 01.03.13 - 28.02.13 28.02.13 02.03.13
_ Max-Zeit 15:00 13:01 23:30 14:01 09:30 - 14:45 15:00 08:30
Maximum _ 7,9 C 86 % 1027,6 hPa 1,8 l/m 15,3 km/h
N
- 2,8 C 7,9 C 35,4 km/h
N
Durchschnitt _ 2,9 C 77 % 1022,2 hPa #21,8 l/m 5,0 km/h N -0,8 C 1,9 C 12,8 km/h